Terminal Aerodrome Forecast
Issued by NWS Shreveport, LA

Home | Current Version | Previous Version | Text Only | Print | Product List | Glossary On
Versions: 1 2 3 4 5 6 7 8 9 10 11 12 13
000
FTUS44 KSHV 010500
TAFGGG
TAF
KGGG 010524Z 0106/0206 05005KT 4SM BR OVC006
      TEMPO 0107/0111 2SM BR OVC004
     FM011100 03004KT 2SM BR OVC004
     FM011500 02006KT 5SM BR OVC007
     FM011800 01007KT P6SM OVC013
     FM012100 01007KT P6SM OVC023
     FM020100 02004KT P6SM BKN025=

USA.gov is the U.S. government's official web portal to all federal, state and local government web resources and services.